Time;durP1;ratioP1;P1;durP2;ratioP2;P2;SDS_P1;SDS_P2;PMS_P1;PMS_P2;Temp;Humidity;BMP_temperature;BMP_pressure;BME280_temperature;BME280_humidity;BME280_pressure;Samples;Min_cycle;Max_cycle;Signal;HPM_P1;HPM_P2
2022/10/28 05:00:10;;;;;;;15.53;5.63;;;16.90;97.20;;;;;;1649898;30;20228;-72
2022/10/28 05:01:04;;;;;;;7.38;6.20;;;16.90;97.20;;;;;;1649665;30;20686;-73
2022/10/28 05:01:56;;;;;;;8.80;6.07;;;16.90;97.20;;;;;;1649752;30;20208;-74
2022/10/28 05:02:47;;;;;;;10.77;6.00;;;16.90;97.20;;;;;;1649346;30;20824;-74
2022/10/28 05:03:38;;;;;;;11.20;6.50;;;16.80;97.20;;;;;;1649732;30;20200;-73
2022/10/28 05:04:29;;;;;;;8.27;5.82;;;16.80;97.20;;;;;;1649417;29;20213;-73
2022/10/28 05:05:21;;;;;;;7.00;5.23;;;16.80;97.20;;;;;;1649760;30;20205;-73
2022/10/28 05:06:12;;;;;;;7.75;5.60;;;16.90;97.20;;;;;;1649391;30;20212;-73
2022/10/28 05:07:03;;;;;;;10.40;5.77;;;16.80;97.20;;;;;;1649747;30;20212;-74
2022/10/28 05:07:54;;;;;;;8.45;6.22;;;16.80;97.20;;;;;;1649676;30;20231;-73
2022/10/28 05:08:46;;;;;;;9.03;5.90;;;16.80;97.20;;;;;;1649764;30;20247;-75
2022/10/28 05:09:37;;;;;;;11.98;6.30;;;16.80;97.20;;;;;;1649697;30;20579;-73
2022/10/28 05:10:29;;;;;;;10.83;6.07;;;16.80;97.20;;;;;;1649199;29;20227;-75
2022/10/28 05:11:20;;;;;;;8.77;5.78;;;16.80;97.20;;;;;;1640482;30;20302;-74
2022/10/28 05:12:11;;;;;;;12.85;7.25;;;16.80;97.20;;;;;;1642526;30;20245;-74
2022/10/28 05:13:02;;;;;;;15.02;5.40;;;16.80;97.20;;;;;;1646913;30;20215;-74
2022/10/28 05:13:54;;;;;;;13.03;5.60;;;16.80;97.20;;;;;;1649227;29;20207;-75
2022/10/28 05:14:45;;;;;;;14.38;5.97;;;16.80;97.20;;;;;;1649375;30;20454;-74
2022/10/28 05:15:39;;;;;;;7.60;5.53;;;16.80;97.20;;;;;;1649000;29;20581;-74
2022/10/28 05:16:30;;;;;;;8.65;5.40;;;16.80;97.20;;;;;;1648987;30;20212;-73
2022/10/28 05:17:22;;;;;;;7.70;5.87;;;16.80;97.20;;;;;;1649293;30;20287;-75
2022/10/28 05:18:12;;;;;;;6.40;4.80;;;16.80;97.20;;;;;;1649224;30;20454;-73
2022/10/28 05:19:04;;;;;;;8.17;4.57;;;16.80;97.20;;;;;;1649101;30;20211;-74
2022/10/28 05:19:55;;;;;;;6.72;4.78;;;16.80;97.20;;;;;;1648947;29;20460;-74
2022/10/28 05:20:51;;;;;;;7.30;4.70;;;16.80;97.20;;;;;;1650677;29;20232;-74
2022/10/28 05:21:42;;;;;;;11.68;5.22;;;16.80;97.20;;;;;;1649434;29;20201;-74
2022/10/28 05:22:34;;;;;;;9.27;4.50;;;16.80;97.20;;;;;;1649141;30;20228;-73
2022/10/28 05:23:24;;;;;;;6.53;4.38;;;16.80;97.20;;;;;;1649305;30;20451;-74
2022/10/28 05:24:16;;;;;;;13.57;4.20;;;16.80;97.20;;;;;;1649201;30;20207;-73
2022/10/28 05:25:07;;;;;;;10.07;4.13;;;16.80;97.20;;;;;;1649262;30;20204;-74
2022/10/28 05:25:59;;;;;;;8.75;3.45;;;16.80;97.20;;;;;;1649284;30;20207;-74
2022/10/28 05:26:50;;;;;;;8.98;4.00;;;16.70;97.20;;;;;;1648936;30;20984;-73
2022/10/28 05:27:42;;;;;;;4.17;3.23;;;16.70;97.20;;;;;;1649189;30;20623;-74
2022/10/28 05:28:32;;;;;;;8.85;3.90;;;16.70;97.20;;;;;;1649279;30;20209;-74
2022/10/28 05:29:24;;;;;;;10.17;3.90;;;16.70;97.20;;;;;;1649327;30;20205;-74
2022/10/28 05:30:15;;;;;;;5.15;3.40;;;16.70;97.20;;;;;;1649390;29;20212;-74
2022/10/28 05:31:08;;;;;;;6.80;3.40;;;16.70;97.20;;;;;;1661153;29;20215;-75
2022/10/28 05:31:59;;;;;;;7.90;3.53;;;16.70;97.20;;;;;;1661740;29;20468;-74
2022/10/28 05:32:51;;;;;;;7.30;4.10;;;16.70;97.20;;;;;;1667130;29;20305;-74
2022/10/28 05:33:42;;;;;;;5.80;3.47;;;16.70;97.20;;;;;;1668405;29;20214;-73
2022/10/28 05:34:33;;;;;;;6.17;3.97;;;16.70;97.20;;;;;;1668435;29;20708;-75
2022/10/28 05:35:24;;;;;;;6.03;4.25;;;16.70;97.20;;;;;;1668349;29;20590;-74
2022/10/28 05:36:16;;;;;;;6.30;3.60;;;16.70;97.20;;;;;;1673394;29;20220;-73
2022/10/28 05:37:06;;;;;;;6.72;4.15;;;16.70;97.20;;;;;;1674649;29;20241;-76
2022/10/28 05:37:58;;;;;;;6.90;4.50;;;16.70;97.20;;;;;;1674682;29;20216;-74
2022/10/28 05:38:49;;;;;;;7.75;3.75;;;16.70;97.20;;;;;;1674708;29;20695;-75
2022/10/28 05:39:41;;;;;;;6.10;4.10;;;16.70;97.20;;;;;;1674745;29;20570;-75
2022/10/28 05:40:32;;;;;;;9.95;5.15;;;16.70;97.20;;;;;;1674603;29;20233;-73
2022/10/28 05:41:24;;;;;;;10.52;4.85;;;16.70;97.20;;;;;;1674774;29;20280;-75
2022/10/28 05:42:15;;;;;;;9.07;4.68;;;16.70;97.20;;;;;;1674760;29;20216;-74
2022/10/28 05:43:08;;;;;;;12.33;6.27;;;16.70;97.20;;;;;;1674770;29;20297;-76
2022/10/28 05:43:58;;;;;;;7.22;6.03;;;16.70;97.20;;;;;;1674713;29;20210;-75
2022/10/28 05:44:50;;;;;;;9.77;5.53;;;16.70;97.20;;;;;;1674858;29;20361;-75
2022/10/28 05:45:41;;;;;;;11.48;5.75;;;16.70;97.20;;;;;;1674741;29;20217;-74
2022/10/28 05:46:34;;;;;;;7.57;6.50;;;16.70;97.20;;;;;;1674388;29;20281;-76
2022/10/28 05:47:25;;;;;;;10.77;8.13;;;16.70;97.20;;;;;;1674362;29;20210;-74
2022/10/28 05:48:16;;;;;;;10.53;7.27;;;16.70;97.20;;;;;;1674666;29;20228;-74
2022/10/28 05:49:07;;;;;;;7.40;6.10;;;16.70;97.20;;;;;;1674690;29;20205;-75
2022/10/28 05:49:59;;;;;;;9.23;6.23;;;16.60;97.20;;;;;;1674749;29;20210;-74
2022/10/28 05:50:49;;;;;;;9.05;5.82;;;16.70;97.20;;;;;;1674508;29;20328;-76
2022/10/28 05:51:41;;;;;;;10.10;5.60;;;16.60;97.20;;;;;;1674296;29;20217;-76
2022/10/28 05:52:32;;;;;;;7.38;5.70;;;16.60;97.20;;;;;;1674544;29;20224;-75
2022/10/28 05:53:24;;;;;;;11.17;6.40;;;16.60;97.20;;;;;;1675662;29;20194;-74
2022/10/28 05:54:14;;;;;;;10.18;6.95;;;16.60;97.20;;;;;;1674626;29;20213;-76
2022/10/28 05:55:07;;;;;;;10.23;6.47;;;16.60;97.20;;;;;;1674737;29;20212;-76
2022/10/28 05:55:57;;;;;;;10.93;6.75;;;16.60;97.20;;;;;;1674711;29;20210;-75
2022/10/28 05:56:49;;;;;;;8.77;5.80;;;16.60;97.20;;;;;;1674301;29;20210;-75
2022/10/28 05:57:40;;;;;;;8.82;5.53;;;16.60;97.20;;;;;;1674601;29;20213;-75
2022/10/28 05:58:31;;;;;;;5.23;4.73;;;16.60;97.20;;;;;;1674657;29;20209;-76
2022/10/28 05:59:22;;;;;;;9.15;5.65;;;16.60;97.20;;;;;;1674544;29;20213;-75
2022/10/28 06:00:15;;;;;;;9.50;5.30;;;16.60;97.20;;;;;;1674583;29;20209;-75
2022/10/28 06:01:06;;;;;;;7.15;4.40;;;16.60;97.20;;;;;;1674696;29;20771;-75
2022/10/28 06:02:00;;;;;;;6.75;5.20;;;16.60;97.20;;;;;;1674621;29;20241;-75
2022/10/28 06:02:50;;;;;;;9.50;5.20;;;16.60;97.20;;;;;;1674612;29;20212;-74
2022/10/28 06:03:42;;;;;;;5.03;4.53;;;16.60;97.20;;;;;;1674652;29;20198;-75
2022/10/28 06:04:33;;;;;;;6.82;4.80;;;16.60;97.20;;;;;;1674628;29;20598;-75
2022/10/28 06:05:25;;;;;;;8.33;4.87;;;16.60;97.20;;;;;;1674643;29;20573;-75
2022/10/28 06:06:16;;;;;;;9.30;4.45;;;16.60;97.20;;;;;;1674332;29;20206;-75
2022/10/28 06:07:08;;;;;;;5.13;4.63;;;16.60;97.20;;;;;;1674560;29;20233;-75
2022/10/28 06:07:58;;;;;;;7.70;4.30;;;16.60;97.20;;;;;;1674665;29;20566;-74
2022/10/28 06:08:50;;;;;;;7.80;4.70;;;16.60;97.20;;;;;;1674615;29;20684;-74
2022/10/28 06:09:41;;;;;;;6.47;4.10;;;16.60;97.20;;;;;;1675615;29;20218;-75
2022/10/28 06:10:33;;;;;;;6.27;4.13;;;16.60;97.20;;;;;;1674785;29;20218;-75
2022/10/28 06:11:24;;;;;;;7.63;4.20;;;16.60;97.20;;;;;;1675219;29;20206;-75
2022/10/28 06:12:16;;;;;;;6.03;4.70;;;16.60;97.20;;;;;;1674754;29;20225;-75
2022/10/28 06:13:07;;;;;;;20.52;4.03;;;16.60;97.20;;;;;;1675772;29;20214;-74
2022/10/28 06:13:59;;;;;;;5.85;3.65;;;16.60;97.20;;;;;;1675774;29;20296;-75
2022/10/28 06:14:50;;;;;;;5.85;4.32;;;16.60;97.20;;;;;;1675859;29;20213;-74
2022/10/28 06:15:42;;;;;;;7.53;5.10;;;16.60;97.20;;;;;;1675725;29;20696;-74
2022/10/28 06:16:32;;;;;;;8.23;4.13;;;16.60;97.20;;;;;;1675384;29;20206;-74
2022/10/28 06:17:26;;;;;;;7.17;3.93;;;16.60;97.20;;;;;;1675526;29;20244;-74
2022/10/28 06:18:16;;;;;;;8.05;4.10;;;16.60;97.20;;;;;;1675704;29;20232;-74
2022/10/28 06:19:08;;;;;;;6.23;3.50;;;16.60;97.20;;;;;;1675750;29;20202;-75
2022/10/28 06:19:59;;;;;;;6.63;3.80;;;16.60;97.20;;;;;;1675690;29;20680;-75
2022/10/28 06:20:55;;;;;;;5.43;3.70;;;16.60;97.20;;;;;;1675638;29;20734;-76
2022/10/28 06:21:45;;;;;;;7.18;4.35;;;16.60;97.20;;;;;;1675697;29;20210;-75
2022/10/28 06:22:37;;;;;;;6.60;3.40;;;16.60;97.20;;;;;;1675641;29;20198;-74
2022/10/28 06:23:28;;;;;;;6.13;3.80;;;16.60;97.20;;;;;;1675734;29;20209;-74
2022/10/28 06:24:19;;;;;;;5.67;4.27;;;16.60;97.20;;;;;;1675700;29;20206;-74
2022/10/28 06:25:10;;;;;;;8.38;4.05;;;16.60;97.20;;;;;;1675658;29;20214;-72
2022/10/28 06:26:04;;;;;;;4.30;2.87;;;16.60;97.20;;;;;;1678350;29;20854;-74
2022/10/28 06:26:54;;;;;;;10.02;3.63;;;16.60;97.20;;;;;;1675719;29;20213;-75
2022/10/28 06:27:51;;;;;;;6.57;4.03;;;16.60;97.20;;;;;;1675676;29;20206;-74
2022/10/28 06:28:45;;;;;;;4.50;3.25;;;16.60;97.20;;;;;;1675762;29;20206;-75
2022/10/28 06:29:36;;;;;;;6.65;3.60;;;16.60;97.20;;;;;;1675772;29;20229;-75
2022/10/28 06:30:27;;;;;;;6.40;3.30;;;16.60;97.20;;;;;;1675532;29;20471;-74
2022/10/28 06:31:19;;;;;;;6.13;3.40;;;16.60;97.20;;;;;;1675519;29;20209;-74
2022/10/28 06:32:10;;;;;;;8.93;3.78;;;16.60;97.20;;;;;;1671405;29;20459;-75
2022/10/28 06:33:03;;;;;;;7.07;3.57;;;16.60;97.20;;;;;;1663047;29;20215;-74
2022/10/28 06:33:56;;;;;;;7.93;4.05;;;16.60;97.20;;;;;;1662704;29;20595;-75
2022/10/28 06:34:48;;;;;;;7.40;4.65;;;16.60;97.20;;;;;;1662721;29;20211;-74
2022/10/28 06:35:38;;;;;;;7.55;3.85;;;16.60;97.20;;;;;;1662860;29;20667;-74
2022/10/28 06:36:30;;;;;;;7.63;4.33;;;16.60;97.20;;;;;;1662782;29;20658;-74
2022/10/28 06:37:21;;;;;;;6.65;4.22;;;16.70;97.20;;;;;;1662945;29;20237;-74
2022/10/28 06:38:12;;;;;;;7.53;4.17;;;16.70;97.20;;;;;;1662974;29;20207;-74
2022/10/28 06:39:04;;;;;;;9.70;3.63;;;16.70;97.20;;;;;;1662961;29;20211;-74
2022/10/28 06:39:57;;;;;;;9.15;4.10;;;16.70;97.20;;;;;;1662500;29;20238;-74
2022/10/28 06:40:48;;;;;;;6.60;3.80;;;16.60;97.20;;;;;;1662195;29;20270;-75
2022/10/28 06:41:40;;;;;;;8.87;4.73;;;16.60;97.20;;;;;;1662335;29;20203;-75
2022/10/28 06:42:30;;;;;;;6.95;3.70;;;16.60;97.20;;;;;;1666428;29;20205;-75
2022/10/28 06:43:22;;;;;;;4.70;3.93;;;16.70;97.20;;;;;;1669522;29;20281;-74
2022/10/28 06:44:13;;;;;;;10.38;4.50;;;16.70;97.20;;;;;;1671696;29;20202;-74
2022/10/28 06:45:05;;;;;;;7.87;4.27;;;16.70;97.20;;;;;;1668617;29;20218;-74
2022/10/28 06:46:00;;;;;;;9.63;4.70;;;16.60;97.20;;;;;;1668475;29;20222;-75
2022/10/28 06:46:52;;;;;;;7.50;4.65;;;16.70;97.20;;;;;;1668282;29;20710;-75
2022/10/28 06:47:43;;;;;;;5.93;4.30;;;16.70;97.20;;;;;;1668713;29;20219;-75
2022/10/28 06:48:36;;;;;;;13.50;5.20;;;16.70;97.20;;;;;;1668655;29;20207;-75
2022/10/28 06:49:27;;;;;;;9.80;5.20;;;16.70;97.20;;;;;;1668621;29;20206;-75
2022/10/28 06:50:18;;;;;;;5.78;4.20;;;16.60;97.20;;;;;;1668565;29;20203;-75
2022/10/28 06:51:09;;;;;;;6.97;4.80;;;16.70;97.20;;;;;;1668762;29;20206;-75
2022/10/28 06:52:01;;;;;;;5.60;4.17;;;16.60;97.20;;;;;;1668658;29;20202;-75
2022/10/28 06:52:53;;;;;;;9.07;4.63;;;16.60;97.20;;;;;;1668930;29;21006;-75
2022/10/28 06:53:48;;;;;;;10.23;4.30;;;16.60;97.20;;;;;;1668888;29;20206;-76
2022/10/28 06:54:39;;;;;;;6.35;4.53;;;16.60;97.20;;;;;;1669044;29;20214;-75
2022/10/28 06:55:31;;;;;;;8.00;4.80;;;16.60;97.20;;;;;;1669334;29;20209;-74
2022/10/28 06:56:22;;;;;;;7.15;4.60;;;16.60;97.20;;;;;;1668927;29;20203;-74
2022/10/28 06:57:14;;;;;;;7.72;4.10;;;16.60;97.20;;;;;;1669406;29;20206;-75
2022/10/28 06:58:04;;;;;;;6.60;4.85;;;16.60;97.20;;;;;;1669343;29;20233;-76
2022/10/28 06:58:56;;;;;;;7.27;4.43;;;16.60;97.20;;;;;;1669094;29;20210;-76
2022/10/28 06:59:48;;;;;;;9.13;4.35;;;16.60;97.20;;;;;;1670160;29;20215;-75
2022/10/28 07:00:40;;;;;;;8.90;4.88;;;16.60;97.20;;;;;;1669198;29;20219;-75
2022/10/28 07:01:31;;;;;;;5.60;4.38;;;16.60;97.20;;;;;;1669194;29;20570;-75
2022/10/28 07:02:22;;;;;;;11.97;4.50;;;16.70;97.20;;;;;;1669291;29;20220;-74
2022/10/28 07:03:13;;;;;;;5.60;4.40;;;16.70;97.20;;;;;;1669175;29;20206;-74
2022/10/28 07:04:08;;;;;;;10.77;4.37;;;16.70;97.20;;;;;;1669407;29;20666;-74
2022/10/28 07:04:58;;;;;;;10.70;4.95;;;16.70;97.20;;;;;;1669255;29;20455;-76
2022/10/28 07:05:50;;;;;;;8.10;5.33;;;16.70;97.20;;;;;;1669208;29;20210;-75
2022/10/28 07:06:41;;;;;;;7.18;5.20;;;16.70;97.20;;;;;;1669035;29;20207;-76
2022/10/28 07:07:36;;;;;;;12.00;5.37;;;16.70;97.20;;;;;;1669150;29;20278;-75
2022/10/28 07:08:27;;;;;;;5.13;4.40;;;16.70;97.20;;;;;;1669207;29;20215;-75
2022/10/28 07:09:19;;;;;;;11.43;4.80;;;16.70;97.20;;;;;;1669157;29;20202;-75
2022/10/28 07:10:10;;;;;;;6.20;4.65;;;16.70;97.20;;;;;;1669114;29;20206;-75
2022/10/28 07:11:02;;;;;;;8.60;4.80;;;16.70;97.20;;;;;;1669061;29;20230;-76
2022/10/28 07:11:52;;;;;;;9.60;4.55;;;16.80;97.20;;;;;;1669107;29;20210;-74
2022/10/28 07:12:44;;;;;;;9.30;4.57;;;16.80;97.20;;;;;;1669144;29;20210;-76
2022/10/28 07:13:35;;;;;;;10.15;4.85;;;16.80;97.20;;;;;;1669158;29;20210;-76
2022/10/28 07:14:26;;;;;;;4.83;3.83;;;16.80;97.20;;;;;;1669112;29;20199;-75
2022/10/28 07:15:17;;;;;;;10.90;4.15;;;16.80;97.20;;;;;;1669054;29;20206;-75
2022/10/28 07:16:09;;;;;;;8.97;4.90;;;16.80;97.20;;;;;;1669788;29;20220;-76
2022/10/28 07:17:00;;;;;;;10.70;4.75;;;16.80;97.20;;;;;;1669017;29;20206;-75
2022/10/28 07:17:53;;;;;;;7.00;4.30;;;16.80;97.20;;;;;;1668931;29;20720;-76
2022/10/28 07:18:45;;;;;;;8.32;4.25;;;16.90;97.20;;;;;;1669168;29;20590;-75
2022/10/28 07:19:37;;;;;;;12.07;4.82;;;16.90;97.20;;;;;;1669066;29;20213;-75
2022/10/28 07:20:30;;;;;;;6.63;4.55;;;16.90;97.20;;;;;;1669028;29;20269;-75
2022/10/28 07:21:27;;;;;;;12.60;4.10;;;16.90;97.20;;;;;;1669054;29;20206;-75
2022/10/28 07:22:18;;;;;;;7.35;4.47;;;17.00;97.20;;;;;;1669069;29;20285;-76
2022/10/28 07:23:09;;;;;;;10.52;5.18;;;17.00;97.20;;;;;;1669044;29;20213;-76
2022/10/28 07:24:01;;;;;;;9.47;4.37;;;17.00;97.20;;;;;;1668901;29;20198;-74
2022/10/28 07:24:52;;;;;;;7.40;4.53;;;17.00;97.20;;;;;;1669005;29;20458;-76
2022/10/28 07:25:44;;;;;;;5.40;3.60;;;17.00;97.20;;;;;;1669199;29;20213;-74
2022/10/28 07:26:35;;;;;;;11.38;4.10;;;17.00;97.20;;;;;;1668747;29;20297;-75
2022/10/28 07:27:26;;;;;;;5.83;3.87;;;16.90;97.20;;;;;;1668864;29;20202;-76
2022/10/28 07:28:17;;;;;;;6.68;3.38;;;16.90;97.20;;;;;;1669036;29;20217;-75
2022/10/28 07:29:09;;;;;;;5.80;3.77;;;16.90;97.20;;;;;;1669005;29;20302;-76
2022/10/28 07:30:00;;;;;;;5.88;3.75;;;16.90;97.20;;;;;;1668993;29;20210;-75
2022/10/28 07:30:52;;;;;;;6.90;3.47;;;16.90;97.20;;;;;;1668952;29;20236;-74
2022/10/28 07:31:42;;;;;;;7.30;3.38;;;16.90;97.20;;;;;;1669005;29;20210;-75
2022/10/28 07:32:34;;;;;;;8.93;4.30;;;16.90;97.20;;;;;;1668896;29;20230;-75
2022/10/28 07:33:25;;;;;;;5.05;3.17;;;16.90;97.20;;;;;;1670076;29;20207;-75
2022/10/28 07:34:17;;;;;;;6.00;3.63;;;16.90;97.20;;;;;;1675262;29;20210;-76
2022/10/28 07:35:09;;;;;;;6.03;3.42;;;16.90;97.20;;;;;;1675342;29;20210;-76
2022/10/28 07:36:03;;;;;;;5.32;3.20;;;16.90;97.20;;;;;;1675245;29;20237;-76
2022/10/28 07:36:54;;;;;;;10.02;3.50;;;16.90;97.20;;;;;;1675025;29;20278;-75
2022/10/28 07:37:46;;;;;;;5.30;3.15;;;17.00;97.20;;;;;;1675203;29;20755;-75
2022/10/28 07:38:37;;;;;;;5.75;3.22;;;17.00;97.20;;;;;;1675232;29;20209;-75
2022/10/28 07:39:29;;;;;;;7.67;3.43;;;17.00;97.20;;;;;;1675208;29;20209;-76
2022/10/28 07:40:22;;;;;;;10.55;3.05;;;17.00;97.20;;;;;;1675267;29;20210;-75
2022/10/28 07:41:13;;;;;;;6.05;4.00;;;17.10;97.20;;;;;;1675170;29;20208;-76
2022/10/28 07:42:04;;;;;;;5.28;3.50;;;17.10;97.20;;;;;;1675244;29;20593;-74
2022/10/28 07:42:57;;;;;;;6.30;3.53;;;17.10;97.20;;;;;;1675204;29;20205;-74
2022/10/28 07:43:48;;;;;;;7.40;3.30;;;17.20;97.20;;;;;;1675215;29;20217;-76
2022/10/28 07:44:40;;;;;;;7.60;3.60;;;17.20;97.20;;;;;;1675486;29;20204;-74
2022/10/28 07:45:31;;;;;;;5.68;3.05;;;17.20;97.20;;;;;;1675709;29;20206;-75
2022/10/28 07:46:23;;;;;;;4.30;2.83;;;17.30;97.20;;;;;;1675346;29;20198;-75
2022/10/28 07:47:14;;;;;;;6.75;3.30;;;17.30;97.20;;;;;;1675242;29;20209;-74
2022/10/28 07:48:06;;;;;;;8.93;3.38;;;17.30;97.20;;;;;;1675311;29;20586;-75
2022/10/28 07:48:58;;;;;;;5.30;3.22;;;17.40;97.20;;;;;;1675330;29;20205;-75
2022/10/28 07:49:50;;;;;;;11.52;3.05;;;17.40;97.20;;;;;;1674292;29;20626;-75
2022/10/28 07:50:43;;;;;;;7.03;3.55;;;17.40;97.20;;;;;;1674604;29;20221;-75
2022/10/28 07:51:33;;;;;;;4.93;2.95;;;17.50;97.20;;;;;;1675275;29;20206;-75
2022/10/28 07:52:25;;;;;;;5.13;3.10;;;17.50;97.20;;;;;;1675194;29;20197;-76
2022/10/28 07:53:16;;;;;;;9.85;3.60;;;17.50;97.20;;;;;;1675215;29;20576;-74
2022/10/28 07:54:08;;;;;;;7.93;2.87;;;17.60;97.20;;;;;;1675169;29;20236;-74
2022/10/28 07:54:59;;;;;;;4.63;3.20;;;17.60;97.20;;;;;;1675133;29;20600;-75
2022/10/28 07:55:55;;;;;;;6.32;4.68;;;17.60;97.20;;;;;;1675204;29;20217;-75
2022/10/28 07:56:47;;;;;;;7.38;4.05;;;17.60;97.20;;;;;;1674919;29;20526;-76
2022/10/28 07:57:38;;;;;;;5.90;3.40;;;17.70;97.20;;;;;;1675027;29;20591;-76
2022/10/28 07:58:30;;;;;;;5.07;3.73;;;17.70;97.20;;;;;;1675289;29;20214;-75
2022/10/28 07:59:23;;;;;;;7.35;4.30;;;17.70;97.20;;;;;;1675185;29;20700;-75
2022/10/28 08:00:15;;;;;;;11.05;4.40;;;17.70;97.20;;;;;;1674988;29;20269;-75
2022/10/28 08:01:08;;;;;;;14.85;4.78;;;17.70;97.20;;;;;;1675230;29;20443;-74
2022/10/28 08:02:00;;;;;;;6.03;4.22;;;17.70;97.20;;;;;;1675188;29;20665;-75
2022/10/28 08:02:51;;;;;;;8.73;3.95;;;17.70;97.20;;;;;;1675166;29;20217;-76
2022/10/28 08:03:43;;;;;;;7.87;4.30;;;17.70;97.20;;;;;;1675181;29;20212;-76
2022/10/28 08:04:35;;;;;;;11.93;4.40;;;17.70;97.20;;;;;;1675099;29;20592;-76
2022/10/28 08:05:25;;;;;;;9.13;4.25;;;17.70;97.20;;;;;;1675154;29;20209;-76
2022/10/28 08:06:20;;;;;;;8.07;3.97;;;17.70;97.20;;;;;;1673942;29;20463;-75
2022/10/28 08:07:11;;;;;;;6.05;4.30;;;17.70;97.20;;;;;;1674957;29;20210;-76
2022/10/28 08:08:03;;;;;;;6.72;4.13;;;17.70;97.20;;;;;;1675034;29;20277;-76
2022/10/28 08:08:57;;;;;;;8.23;4.68;;;17.70;97.20;;;;;;1675114;29;20213;-74
2022/10/28 08:09:47;;;;;;;7.43;4.60;;;17.70;97.20;;;;;;1675078;29;20220;-76
2022/10/28 08:10:39;;;;;;;10.10;4.97;;;17.70;97.20;;;;;;1675128;29;20218;-76
2022/10/28 08:11:30;;;;;;;9.38;5.05;;;17.70;97.20;;;;;;1675079;29;20571;-76
2022/10/28 08:12:22;;;;;;;5.70;4.60;;;17.70;97.20;;;;;;1675113;29;20224;-76
2022/10/28 08:13:12;;;;;;;9.20;4.70;;;17.70;97.20;;;;;;1675055;29;20217;-75
2022/10/28 08:14:04;;;;;;;12.00;4.87;;;17.70;97.20;;;;;;1675131;29;20202;-76
2022/10/28 08:14:55;;;;;;;6.85;3.95;;;17.70;97.20;;;;;;1675054;29;20213;-76
2022/10/28 08:15:52;;;;;;;6.60;5.00;;;17.70;97.20;;;;;;1675235;29;20212;-75
2022/10/28 08:16:44;;;;;;;8.50;4.65;;;17.70;97.20;;;;;;1674927;29;20979;-75
2022/10/28 08:17:35;;;;;;;9.27;5.20;;;17.80;97.20;;;;;;1675110;29;20624;-76
2022/10/28 08:18:26;;;;;;;8.20;4.90;;;17.80;97.20;;;;;;1675156;29;20235;-74
2022/10/28 08:19:18;;;;;;;12.17;5.10;;;17.80;97.20;;;;;;1675016;29;20208;-75
2022/10/28 08:20:09;;;;;;;7.68;4.78;;;17.80;97.20;;;;;;1675088;29;20232;-74
2022/10/28 08:21:02;;;;;;;9.30;5.15;;;17.80;97.20;;;;;;1672306;29;20748;-75
2022/10/28 08:21:54;;;;;;;6.57;5.15;;;17.80;97.20;;;;;;1668750;29;20211;-75
2022/10/28 08:22:46;;;;;;;10.98;4.93;;;17.80;97.20;;;;;;1668642;29;20280;-75
2022/10/28 08:23:37;;;;;;;5.25;4.30;;;17.80;97.20;;;;;;1668702;29;20207;-75
2022/10/28 08:24:29;;;;;;;7.80;4.10;;;17.90;97.20;;;;;;1668642;29;20207;-75
2022/10/28 08:25:20;;;;;;;9.60;4.80;;;17.90;97.20;;;;;;1668670;29;20214;-75
2022/10/28 08:26:12;;;;;;;12.77;5.20;;;17.90;97.20;;;;;;1668285;29;20212;-76
2022/10/28 08:27:04;;;;;;;6.43;4.95;;;17.90;97.20;;;;;;1668674;29;20211;-76
2022/10/28 08:27:56;;;;;;;9.43;4.85;;;17.90;97.20;;;;;;1668530;29;20218;-76
2022/10/28 08:28:48;;;;;;;6.63;4.70;;;17.90;97.20;;;;;;1668758;29;20619;-76
2022/10/28 08:29:39;;;;;;;7.80;4.47;;;17.90;97.20;;;;;;1668636;29;20242;-75
2022/10/28 08:30:31;;;;;;;7.20;4.20;;;18.00;97.20;;;;;;1668681;29;20294;-76
2022/10/28 08:31:21;;;;;;;7.18;4.72;;;18.00;97.20;;;;;;1668671;29;20638;-75
2022/10/28 08:32:13;;;;;;;6.10;4.60;;;18.00;97.20;;;;;;1668777;29;20812;-75
2022/10/28 08:33:04;;;;;;;8.50;4.40;;;18.00;97.20;;;;;;1668662;29;20696;-75
2022/10/28 08:33:55;;;;;;;7.17;4.50;;;18.00;97.20;;;;;;1668672;29;20680;-74
2022/10/28 08:34:46;;;;;;;5.85;4.40;;;18.00;97.20;;;;;;1668697;29;20218;-75
2022/10/28 08:35:38;;;;;;;10.63;4.57;;;18.00;97.20;;;;;;1668194;29;20206;-74
2022/10/28 08:36:45;;;;;;;7.00;4.25;;;18.00;97.20;;;;;;1668355;29;20309;-75
2022/10/28 08:37:37;;;;;;;6.88;4.38;;;18.00;97.20;;;;;;1669254;29;20336;-75
2022/10/28 08:38:28;;;;;;;9.20;4.55;;;18.10;97.20;;;;;;1668595;29;20234;-75
2022/10/28 08:39:19;;;;;;;6.68;4.95;;;18.10;97.20;;;;;;1668725;29;20206;-74
2022/10/28 08:40:15;;;;;;;7.60;4.70;;;18.10;97.20;;;;;;1668584;29;20216;-75
2022/10/28 08:43:26;;;;;;;5.68;4.57;;;18.10;97.20;;;;;;1664995;29;20222;-75
2022/10/28 08:44:45;;;;;;;9.75;4.72;;;18.10;97.20;;;;;;1668637;29;20215;-73
2022/10/28 08:45:48;;;;;;;8.98;4.60;;;18.10;97.20;;;;;;1666931;29;20208;-74
2022/10/28 08:46:54;;;;;;;13.55;5.68;;;18.10;97.20;;;;;;1668212;29;20207;-74
2022/10/28 08:47:59;;;;;;;12.13;5.10;;;18.10;97.20;;;;;;1668557;29;20218;-75
2022/10/28 08:48:50;;;;;;;13.65;4.43;;;18.20;97.20;;;;;;1668638;29;20218;-74
2022/10/28 08:49:43;;;;;;;9.20;4.47;;;18.20;97.20;;;;;;1668499;29;20195;-74
2022/10/28 08:50:43;;;;;;;12.45;5.10;;;18.20;97.20;;;;;;1668546;29;20238;-74
2022/10/28 08:51:41;;;;;;;10.05;4.00;;;18.20;97.20;;;;;;1668544;29;20202;-74
2022/10/28 08:52:42;;;;;;;16.90;4.25;;;18.20;97.20;;;;;;1668547;29;20587;-75
2022/10/28 08:53:39;;;;;;;6.35;4.07;;;18.20;97.20;;;;;;1668570;29;20281;-75
2022/10/28 08:54:33;;;;;;;10.25;4.20;;;18.20;97.20;;;;;;1669514;29;20211;-74
2022/10/28 08:55:29;;;;;;;7.43;4.70;;;18.30;97.20;;;;;;1668492;29;20298;-75
2022/10/28 08:56:29;;;;;;;11.65;4.50;;;18.30;97.20;;;;;;1668245;29;20214;-74
2022/10/28 08:57:27;;;;;;;7.90;4.28;;;18.30;97.20;;;;;;1668397;29;20210;-75
2022/10/28 08:58:22;;;;;;;13.60;4.75;;;18.30;97.20;;;;;;1668453;29;20241;-74
2022/10/28 08:59:21;;;;;;;8.73;4.45;;;18.40;97.20;;;;;;1668513;29;20707;-74
2022/10/28 09:00:19;;;;;;;7.88;4.43;;;18.40;97.20;;;;;;1668467;29;20219;-73
2022/10/28 09:01:23;;;;;;;11.32;3.60;;;18.40;97.20;;;;;;1668532;29;20209;-75
2022/10/28 09:02:21;;;;;;;6.03;3.28;;;18.50;97.20;;;;;;1668497;29;20211;-74
2022/10/28 09:03:19;;;;;;;7.75;3.42;;;18.50;97.20;;;;;;1668541;29;20234;-75
2022/10/28 09:04:18;;;;;;;8.52;3.78;;;18.50;97.20;;;;;;1668517;29;20711;-73
2022/10/28 09:05:19;;;;;;;11.18;3.78;;;18.60;97.20;;;;;;1668656;29;20611;-74
2022/10/28 09:06:10;;;;;;;7.50;3.03;;;18.60;97.20;;;;;;1668258;29;20234;-75
2022/10/28 09:07:03;;;;;;;4.50;2.70;;;18.70;97.20;;;;;;1668393;29;20213;-75
2022/10/28 09:07:56;;;;;;;4.85;3.08;;;18.70;97.20;;;;;;1668390;29;20213;-74
2022/10/28 09:08:49;;;;;;;9.32;3.10;;;18.70;97.20;;;;;;1668517;29;20218;-74
2022/10/28 09:09:40;;;;;;;8.32;3.00;;;18.80;97.20;;;;;;1668437;29;20362;-74
2022/10/28 09:10:48;;;;;;;5.43;2.70;;;18.80;97.20;;;;;;1668379;29;20225;-74
2022/10/28 09:11:52;;;;;;;6.95;2.90;;;18.80;97.20;;;;;;1673620;29;20293;-74
2022/10/28 09:12:55;;;;;;;5.88;3.13;;;18.90;97.20;;;;;;1674782;29;20224;-74
2022/10/28 09:14:02;;;;;;;5.50;3.10;;;18.90;97.20;;;;;;1674899;29;20217;-74
2022/10/28 09:15:16;;;;;;;7.32;3.20;;;19.00;97.20;;;;;;1674896;29;20729;-75
2022/10/28 09:16:15;;;;;;;5.57;2.67;;;19.00;97.20;;;;;;1674978;29;20214;-74
2022/10/28 09:17:15;;;;;;;6.10;2.80;;;19.00;97.20;;;;;;1675228;29;20233;-75
2022/10/28 09:18:16;;;;;;;5.07;2.53;;;19.10;97.20;;;;;;1675177;29;20301;-75
2022/10/28 09:19:15;;;;;;;4.90;2.47;;;19.10;97.20;;;;;;1676932;29;20214;-75
2022/10/28 09:20:17;;;;;;;5.22;2.70;;;19.20;97.20;;;;;;1676377;29;20205;-74
2022/10/28 09:21:17;;;;;;;7.10;2.80;;;19.20;97.20;;;;;;1674946;29;20707;-74
2022/10/28 09:22:21;;;;;;;4.25;2.60;;;19.20;97.20;;;;;;1675149;29;20263;-74
2022/10/28 09:23:21;;;;;;;5.78;2.70;;;19.30;97.20;;;;;;1674859;29;20237;-74
2022/10/28 09:24:17;;;;;;;13.52;2.83;;;19.30;97.20;;;;;;1674905;29;20214;-74
2022/10/28 09:25:21;;;;;;;4.93;2.67;;;19.30;97.20;;;;;;1674829;29;20202;-74
2022/10/28 09:26:19;;;;;;;5.97;2.38;;;19.40;97.20;;;;;;1674499;29;20233;-74
2022/10/28 09:27:21;;;;;;;4.40;2.72;;;19.40;97.20;;;;;;1674520;29;20206;-74
2022/10/28 09:28:31;;;;;;;5.80;2.80;;;19.40;97.20;;;;;;1668414;29;20255;-74
2022/10/28 09:29:38;;;;;;;6.07;2.95;;;19.40;97.20;;;;;;1668522;29;20670;-73
2022/10/28 09:30:37;;;;;;;6.53;2.90;;;19.50;97.20;;;;;;1668507;29;20692;-74
2022/10/28 09:31:35;;;;;;;4.50;2.85;;;19.50;97.20;;;;;;1668437;29;20214;-74
2022/10/28 09:32:37;;;;;;;7.88;3.00;;;19.50;97.20;;;;;;1668393;29;20270;-74
2022/10/28 09:33:45;;;;;;;8.20;2.95;;;19.50;97.20;;;;;;1668639;29;20249;-75
2022/10/28 09:34:43;;;;;;;5.55;2.80;;;19.60;97.20;;;;;;1668789;29;20670;-74
2022/10/28 09:35:41;;;;;;;5.50;2.45;;;19.60;97.20;;;;;;1668414;29;20206;-75
2022/10/28 09:36:35;;;;;;;3.90;2.80;;;19.60;97.20;;;;;;1668258;29;20674;-75
2022/10/28 09:37:30;;;;;;;5.65;2.35;;;19.70;97.20;;;;;;1668356;29;20630;-74
2022/10/28 09:38:27;;;;;;;10.57;2.33;;;19.70;97.20;;;;;;1668382;29;20210;-73